Irenes Respect — V7LP2 — position and weather

sailwx.info

Track history (hours):
 
Tides and Currents Weather Stations Pressure Air Temp Water Temp Dewpoint Dewpoint Depression Visibility Wind Speed Wind Dir Waves Ship Positions

Irenes Respect

Last reported at 2017-Oct-05 19:27 UTC. Time now 2017-Oct-17 02:19 UTC.
Position N 31°05' E 122°34'.
Warning: this ship's position is 11 days out of date.

Length 222 m; draft 10.7 m.

Type: Cargo ship. MMSI: 538007005.

Date/timePositionNaut miles runAvg speedWind from/ knotsBaromVisibWave heightAir tempDewpointWater temp
2017-Oct-05 19:27N 31°05' E 122°34'814.5
2017-Oct-05 18:56N 31°06' E 122°25'614.2
2017-Oct-05 18:31N 31°06' E 122°18'814.9
2017-Oct-05 18:00N 31°11' E 122°11'714.4
2017-Oct-05 17:30N 31°14' E 122°04'713.5
2017-Oct-05 17:00N 31°15' E 121°56'15 9.6
2017-Oct-05 15:28N 31°20' E 121°40'0 0.0
2017-Oct-05 14:58N 31°20' E 121°40'0 0.0
2017-Oct-05 14:28N 31°20' E 121°40'0 0.0
2017-Oct-05 13:58N 31°20' E 121°40'0 0.0
2017-Oct-05 13:28N 31°20' E 121°40'0 0.0
2017-Oct-05 12:58N 31°20' E 121°40'0 0.0
2017-Oct-05 12:28N 31°20' E 121°40'0 0.0
2017-Oct-05 11:58N 31°20' E 121°40'0 0.0
2017-Oct-05 11:28N 31°20' E 121°40'0 0.0
2017-Oct-05 10:58N 31°20' E 121°40'0 0.0
2017-Oct-05 10:28N 31°20' E 121°40'0 0.0
2017-Oct-05 09:58N 31°20' E 121°40'0 0.0
2017-Oct-05 09:28N 31°20' E 121°40'0 0.0
2017-Oct-05 08:58N 31°20' E 121°40'0 0.0
2017-Oct-05 08:28N 31°20' E 121°40'0 0.0
2017-Oct-05 07:58N 31°20' E 121°40'0 0.0
2017-Oct-05 07:28N 31°20' E 121°40'0 0.0
2017-Oct-05 06:58N 31°20' E 121°40'0 0.0
2017-Oct-05 06:25N 31°20' E 121°40'0 0.0
2017-Oct-05 05:58N 31°20' E 121°40'0 0.0
2017-Oct-05 05:28N 31°20' E 121°40'0 0.0
2017-Oct-05 04:58N 31°20' E 121°40'0 0.1
2017-Oct-05 04:30N 31°20' E 121°40'2 3.3
2017-Oct-05 04:00N 31°20' E 121°42'5 9.4
2017-Oct-05 03:31N 31°18' E 121°47'510.2
2017-Oct-05 03:01N 31°16' E 121°52'511.0
2017-Oct-05 02:30N 31°15' E 121°58'5 9.3
2017-Oct-05 02:00N 31°14' E 122°04'510.3
2017-Oct-05 01:30N 31°12' E 122°09'510.3
2017-Oct-05 01:01N 31°09' E 122°14'4 8.0
2017-Oct-05 00:30N 31°06' E 122°18'5 9.3
2017-Oct-05 00:01N 31°06' E 122°23'4 8.6
2017-Oct-04 23:29N 31°07' E 122°28'  
2017-Sep-27 06:47N 25°26' E 121°17'516.8
2017-Sep-27 06:30N 25°22' E 121°15'815.2
2017-Sep-27 06:00N 25°15' E 121°16'714.8
2017-Sep-27 05:30N 25°09' E 121°22'  
Track history (hours):
 
Tides and Currents Weather Stations Pressure Air Temp Water Temp Dewpoint Dewpoint Depression Visibility Wind Speed Wind Dir Waves Ship Positions

Irenes Respect

Last reported at 2017-Oct-05 19:27 UTC. Time now 2017-Oct-17 02:19 UTC.
Position N 31°05' E 122°34'.
Warning: this ship's position is 11 days out of date.

Length 222 m; draft 10.7 m.

Type: Cargo ship. MMSI: 538007005.

Date/timePositionNaut miles runAvg speedWind from/ knotsBaromVisibWave heightAir tempDewpointWater temp
2017-Oct-05 19:27N 31°05' E 122°34'814.5
2017-Oct-05 18:56N 31°06' E 122°25'614.2
2017-Oct-05 18:31N 31°06' E 122°18'814.9
2017-Oct-05 18:00N 31°11' E 122°11'714.4
2017-Oct-05 17:30N 31°14' E 122°04'713.5
2017-Oct-05 17:00N 31°15' E 121°56'15 9.6
2017-Oct-05 15:28N 31°20' E 121°40'0 0.0
2017-Oct-05 14:58N 31°20' E 121°40'0 0.0
2017-Oct-05 14:28N 31°20' E 121°40'0 0.0
2017-Oct-05 13:58N 31°20' E 121°40'0 0.0
2017-Oct-05 13:28N 31°20' E 121°40'0 0.0
2017-Oct-05 12:58N 31°20' E 121°40'0 0.0
2017-Oct-05 12:28N 31°20' E 121°40'0 0.0
2017-Oct-05 11:58N 31°20' E 121°40'0 0.0
2017-Oct-05 11:28N 31°20' E 121°40'0 0.0
2017-Oct-05 10:58N 31°20' E 121°40'0 0.0
2017-Oct-05 10:28N 31°20' E 121°40'0 0.0
2017-Oct-05 09:58N 31°20' E 121°40'0 0.0
2017-Oct-05 09:28N 31°20' E 121°40'0 0.0
2017-Oct-05 08:58N 31°20' E 121°40'0 0.0
2017-Oct-05 08:28N 31°20' E 121°40'0 0.0
2017-Oct-05 07:58N 31°20' E 121°40'0 0.0
2017-Oct-05 07:28N 31°20' E 121°40'0 0.0
2017-Oct-05 06:58N 31°20' E 121°40'0 0.0
2017-Oct-05 06:25N 31°20' E 121°40'0 0.0
2017-Oct-05 05:58N 31°20' E 121°40'0 0.0
2017-Oct-05 05:28N 31°20' E 121°40'0 0.0
2017-Oct-05 04:58N 31°20' E 121°40'0 0.1
2017-Oct-05 04:30N 31°20' E 121°40'2 3.3
2017-Oct-05 04:00N 31°20' E 121°42'5 9.4
2017-Oct-05 03:31N 31°18' E 121°47'510.2
2017-Oct-05 03:01N 31°16' E 121°52'511.0
2017-Oct-05 02:30N 31°15' E 121°58'5 9.3
2017-Oct-05 02:00N 31°14' E 122°04'510.3
2017-Oct-05 01:30N 31°12' E 122°09'510.3
2017-Oct-05 01:01N 31°09' E 122°14'4 8.0
2017-Oct-05 00:30N 31°06' E 122°18'5 9.3
2017-Oct-05 00:01N 31°06' E 122°23'4 8.6
2017-Oct-04 23:29N 31°07' E 122°28'  
2017-Sep-27 06:47N 25°26' E 121°17'516.8
2017-Sep-27 06:30N 25°22' E 121°15'815.2
2017-Sep-27 06:00N 25°15' E 121°16'714.8
2017-Sep-27 05:30N 25°09' E 121°22'  

Dump ship's entire track history